Terminal Aerodrome Forecast
Issued by NWS Grand Forks, ND

Home | Current Version | Previous Version | Graphics & Text | Print | Product List | Glossary On
Versions: 1 2 3 4 5 6 7 8 9 10 11 12 13 14 15 16 17
154
FTUS43 KFGF 201720
TAFFAR
TAF
KFAR 201720Z 2018/2118 17019G28KT P6SM SKC
     FM210400 18016G24KT P6SM BKN110
     FM211400 21013KT P6SM BKN110
     FM211600 25012KT P6SM BKN150=

USA.gov is the U.S. government's official web portal to all federal, state and local government web resources and services.